Lakeland, Georgia
Current Conditions -  °F | °C
As of 1:58 PM on Friday 21 Nov 2014 (Local Time) from KVAD Reporting Station
Clear Clear  
Wind Chill: 70°   Ceiling: Unl
Heat Index: 70°   Visibility: 10mi
Dew Point: 36°   Wind: 8mph
Humidity: 28%   Direction: 50°NE
Pressure: 30.31"   Gusts: NA
Location:  31.04°N, 83.08°W
Report Text: KVAD 211858Z AUTO 05007KT 030V090 10SM CLR 21/02 A3031 RMK AO2 SLP266 T02130021 $
Loading
Personal Weather Stations






























Interactive Weather Map New forecast layout! Learn more

10-Day Weather Forecast

Advertisements
Track Severe Weather on mobile